sensor_id;sensor_type;location;lat;lon;timestamp;pressure;altitude;pressure_sealevel;temperature;humidity
65534;BME280;53640;55.838;37.184;2022-12-18T00:01:18;98676.41;;;-5.44;64.20
65534;BME280;53640;55.838;37.184;2022-12-18T00:03:45;98702.28;;;-5.28;64.24
65534;BME280;53640;55.838;37.184;2022-12-18T00:06:11;98663.19;;;-5.54;63.53
65534;BME280;53640;55.838;37.184;2022-12-18T00:08:43;98680.47;;;-5.40;63.86
65534;BME280;53640;55.838;37.184;2022-12-18T00:11:29;98651.94;;;-5.56;64.28
65534;BME280;53640;55.838;37.184;2022-12-18T00:13:58;98681.03;;;-5.36;63.92
65534;BME280;53640;55.838;37.184;2022-12-18T00:16:26;98650.00;;;-5.54;63.78
65534;BME280;53640;55.838;37.184;2022-12-18T00:18:56;98676.84;;;-5.39;63.91
65534;BME280;53640;55.838;37.184;2022-12-18T00:21:24;98669.34;;;-5.43;63.94
65534;BME280;53640;55.838;37.184;2022-12-18T00:23:51;98625.41;;;-5.64;64.45
65534;BME280;53640;55.838;37.184;2022-12-18T00:26:23;98611.78;;;-5.69;64.53
65534;BME280;53640;55.838;37.184;2022-12-18T00:28:54;98675.59;;;-5.35;63.89
65534;BME280;53640;55.838;37.184;2022-12-18T00:31:23;98653.50;;;-5.43;63.93
65534;BME280;53640;55.838;37.184;2022-12-18T00:33:57;98616.94;;;-5.67;63.55
65534;BME280;53640;55.838;37.184;2022-12-18T00:36:26;98661.16;;;-5.40;63.34
65534;BME280;53640;55.838;37.184;2022-12-18T00:38:56;98646.00;;;-5.48;63.56
65534;BME280;53640;55.838;37.184;2022-12-18T00:41:24;98655.44;;;-5.45;63.56
65534;BME280;53640;55.838;37.184;2022-12-18T00:44:11;98658.22;;;-5.47;63.40
65534;BME280;53640;55.838;37.184;2022-12-18T00:46:38;98653.78;;;-5.46;63.75
65534;BME280;53640;55.838;37.184;2022-12-18T00:49:05;98608.19;;;-5.68;64.23
65534;BME280;53640;55.838;37.184;2022-12-18T00:51:31;98643.22;;;-5.46;64.21
65534;BME280;53640;55.838;37.184;2022-12-18T00:53:58;98604.34;;;-5.64;64.16
65534;BME280;53640;55.838;37.184;2022-12-18T00:56:24;98621.56;;;-5.50;64.08
65534;BME280;53640;55.838;37.184;2022-12-18T00:58:52;98630.75;;;-5.44;63.78
65534;BME280;53640;55.838;37.184;2022-12-18T01:01:19;98620.16;;;-5.54;63.86
65534;BME280;53640;55.838;37.184;2022-12-18T01:03:45;98635.78;;;-5.41;63.77
65534;BME280;53640;55.838;37.184;2022-12-18T01:06:13;98596.28;;;-5.62;63.99
65534;BME280;53640;55.838;37.184;2022-12-18T01:08:40;98632.16;;;-5.40;64.48
65534;BME280;53640;55.838;37.184;2022-12-18T01:11:12;98613.13;;;-5.44;63.90
65534;BME280;53640;55.838;37.184;2022-12-18T01:13:41;98613.97;;;-5.43;64.24
65534;BME280;53640;55.838;37.184;2022-12-18T01:16:08;98554.63;;;-5.78;63.26
65534;BME280;53640;55.838;37.184;2022-12-18T01:18:36;98613.53;;;-5.48;63.35
65534;BME280;53640;55.838;37.184;2022-12-18T01:21:08;98576.84;;;-5.71;63.83
65534;BME280;53640;55.838;37.184;2022-12-18T01:23:37;98589.34;;;-5.63;63.65
65534;BME280;53640;55.838;37.184;2022-12-18T01:26:06;98624.66;;;-5.45;63.56
65534;BME280;53640;55.838;37.184;2022-12-18T01:28:35;98569.03;;;-5.72;63.80
65534;BME280;53640;55.838;37.184;2022-12-18T01:31:21;98623.53;;;-5.42;63.36
65534;BME280;53640;55.838;37.184;2022-12-18T01:33:49;98617.13;;;-5.50;63.31
65534;BME280;53640;55.838;37.184;2022-12-18T01:36:22;98603.00;;;-5.48;63.49
65534;BME280;53640;55.838;37.184;2022-12-18T01:38:49;98602.00;;;-5.47;63.18
65534;BME280;53640;55.838;37.184;2022-12-18T01:41:17;98609.94;;;-5.47;63.49
65534;BME280;53640;55.838;37.184;2022-12-18T01:46:21;98562.94;;;-5.83;63.60
65534;BME280;53640;55.838;37.184;2022-12-18T01:48:50;98613.25;;;-5.45;63.80
65534;BME280;53640;55.838;37.184;2022-12-18T01:51:17;98609.09;;;-5.48;63.81
65534;BME280;53640;55.838;37.184;2022-12-18T01:53:45;98596.59;;;-5.56;63.81
65534;BME280;53640;55.838;37.184;2022-12-18T01:56:18;98599.66;;;-5.51;63.59
65534;BME280;53640;55.838;37.184;2022-12-18T01:59:01;98610.59;;;-5.45;63.12
65534;BME280;53640;55.838;37.184;2022-12-18T02:01:30;98613.66;;;-5.50;63.58
65534;BME280;53640;55.838;37.184;2022-12-18T02:04:30;98617.84;;;-5.47;63.47
65534;BME280;53640;55.838;37.184;2022-12-18T02:07:14;98605.44;;;-5.57;63.38
65534;BME280;53640;55.838;37.184;2022-12-18T02:10:06;98623.22;;;-5.49;63.87
65534;BME280;53640;55.838;37.184;2022-12-18T02:18:12;98608.25;;;-5.48;64.15
65534;BME280;53640;55.838;37.184;2022-12-18T02:28:47;98594.72;;;-5.65;63.73
65534;BME280;53640;55.838;37.184;2022-12-18T02:31:26;98573.06;;;-5.78;64.00
65534;BME280;53640;55.838;37.184;2022-12-18T02:33:55;98597.25;;;-5.63;63.52
65534;BME280;53640;55.838;37.184;2022-12-18T02:36:23;98582.38;;;-5.74;63.39
65534;BME280;53640;55.838;37.184;2022-12-18T02:38:52;98609.59;;;-5.64;62.91
65534;BME280;53640;55.838;37.184;2022-12-18T02:41:21;98571.34;;;-5.89;63.63
65534;BME280;53640;55.838;37.184;2022-12-18T02:43:52;98615.16;;;-5.57;63.41
65534;BME280;53640;55.838;37.184;2022-12-18T02:46:25;98625.31;;;-5.53;63.13
65534;BME280;53640;55.838;37.184;2022-12-18T02:51:50;98596.22;;;-5.72;63.50
65534;BME280;53640;55.838;37.184;2022-12-18T02:57:22;98578.84;;;-5.84;63.30
65534;BME280;53640;55.838;37.184;2022-12-18T03:00:20;98621.56;;;-5.60;62.97
65534;BME280;53640;55.838;37.184;2022-12-18T03:05:53;98626.25;;;-5.63;63.48
65534;BME280;53640;55.838;37.184;2022-12-18T03:08:25;98613.44;;;-5.68;62.99
65534;BME280;53640;55.838;37.184;2022-12-18T03:11:09;98613.19;;;-5.65;63.18
65534;BME280;53640;55.838;37.184;2022-12-18T03:13:48;98573.84;;;-5.87;63.50
65534;BME280;53640;55.838;37.184;2022-12-18T03:16:22;98574.81;;;-5.88;63.60
65534;BME280;53640;55.838;37.184;2022-12-18T03:18:56;98601.13;;;-5.67;63.52
65534;BME280;53640;55.838;37.184;2022-12-18T03:21:32;98538.03;;;-6.00;63.16
65534;BME280;53640;55.838;37.184;2022-12-18T03:24:06;98564.69;;;-5.93;63.12
65534;BME280;53640;55.838;37.184;2022-12-18T03:26:35;98572.00;;;-5.96;63.34
65534;BME280;53640;55.838;37.184;2022-12-18T03:29:08;98597.44;;;-5.86;63.34
65534;BME280;53640;55.838;37.184;2022-12-18T03:31:40;98613.34;;;-5.66;63.40
65534;BME280;53640;55.838;37.184;2022-12-18T03:34:23;98616.38;;;-5.71;62.37
65534;BME280;53640;55.838;37.184;2022-12-18T03:36:53;98606.88;;;-5.83;62.74
65534;BME280;53640;55.838;37.184;2022-12-18T03:39:23;98584.63;;;-6.00;63.14
65534;BME280;53640;55.838;37.184;2022-12-18T03:45:12;98612.19;;;-5.74;63.01
65534;BME280;53640;55.838;37.184;2022-12-18T03:51:06;98618.13;;;-5.81;63.36
65534;BME280;53640;55.838;37.184;2022-12-18T03:55:48;98603.38;;;-5.93;63.29
65534;BME280;53640;55.838;37.184;2022-12-18T03:58:20;98600.28;;;-5.99;63.42
65534;BME280;53640;55.838;37.184;2022-12-18T04:00:58;98595.00;;;-5.99;63.04
65534;BME280;53640;55.838;37.184;2022-12-18T04:03:28;98590.41;;;-6.06;62.70
65534;BME280;53640;55.838;37.184;2022-12-18T04:05:57;98618.78;;;-5.89;63.01
65534;BME280;53640;55.838;37.184;2022-12-18T04:08:27;98630.16;;;-5.88;63.51
65534;BME280;53640;55.838;37.184;2022-12-18T04:11:04;98616.91;;;-5.98;63.11
65534;BME280;53640;55.838;37.184;2022-12-18T04:13:36;98642.34;;;-5.87;63.08
65534;BME280;53640;55.838;37.184;2022-12-18T04:16:07;98650.41;;;-5.89;62.85
65534;BME280;53640;55.838;37.184;2022-12-18T04:18:34;98630.75;;;-6.06;62.36
65534;BME280;53640;55.838;37.184;2022-12-18T04:21:02;98618.50;;;-6.16;63.20
65534;BME280;53640;55.838;37.184;2022-12-18T04:23:29;98648.81;;;-6.01;63.26
65534;BME280;53640;55.838;37.184;2022-12-18T04:25:58;98678.31;;;-5.86;62.03
65534;BME280;53640;55.838;37.184;2022-12-18T04:28:56;98681.69;;;-5.95;62.60
65534;BME280;53640;55.838;37.184;2022-12-18T04:31:22;98655.69;;;-6.10;63.26
65534;BME280;53640;55.838;37.184;2022-12-18T04:33:49;98680.63;;;-5.93;62.83
65534;BME280;53640;55.838;37.184;2022-12-18T04:36:16;98662.69;;;-5.99;63.38
65534;BME280;53640;55.838;37.184;2022-12-18T04:38:44;98679.50;;;-5.90;63.63
65534;BME280;53640;55.838;37.184;2022-12-18T04:41:14;98667.19;;;-5.90;63.34
65534;BME280;53640;55.838;37.184;2022-12-18T04:43:42;98627.22;;;-6.16;63.44
65534;BME280;53640;55.838;37.184;2022-12-18T04:46:09;98642.22;;;-6.16;63.14
65534;BME280;53640;55.838;37.184;2022-12-18T04:48:36;98636.09;;;-6.17;63.18
65534;BME280;53640;55.838;37.184;2022-12-18T04:51:03;98654.97;;;-6.12;62.79
65534;BME280;53640;55.838;37.184;2022-12-18T04:53:30;98660.44;;;-6.04;62.93
65534;BME280;53640;55.838;37.184;2022-12-18T04:56:07;98646.91;;;-6.20;63.04
65534;BME280;53640;55.838;37.184;2022-12-18T04:58:36;98688.44;;;-6.03;63.09
65534;BME280;53640;55.838;37.184;2022-12-18T05:01:02;98652.28;;;-6.22;62.63
65534;BME280;53640;55.838;37.184;2022-12-18T05:03:29;98670.22;;;-6.15;62.75
65534;BME280;53640;55.838;37.184;2022-12-18T05:05:56;98676.75;;;-6.10;63.33
65534;BME280;53640;55.838;37.184;2022-12-18T05:08:23;98672.75;;;-6.25;62.27
65534;BME280;53640;55.838;37.184;2022-12-18T05:10:49;98699.44;;;-5.97;63.34
65534;BME280;53640;55.838;37.184;2022-12-18T05:13:15;98653.63;;;-6.27;62.93
65534;BME280;53640;55.838;37.184;2022-12-18T05:15:42;98694.63;;;-5.92;62.37
65534;BME280;53640;55.838;37.184;2022-12-18T05:18:08;98693.06;;;-5.95;62.70
65534;BME280;53640;55.838;37.184;2022-12-18T05:20:34;98674.66;;;-6.16;62.63
65534;BME280;53640;55.838;37.184;2022-12-18T05:23:01;98719.66;;;-5.98;62.81
65534;BME280;53640;55.838;37.184;2022-12-18T05:25:27;98689.28;;;-6.23;62.40
65534;BME280;53640;55.838;37.184;2022-12-18T05:27:54;98704.44;;;-6.15;61.48
65534;BME280;53640;55.838;37.184;2022-12-18T05:30:20;98720.19;;;-6.04;62.63
65534;BME280;53640;55.838;37.184;2022-12-18T05:32:47;98736.19;;;-5.96;63.26
65534;BME280;53640;55.838;37.184;2022-12-18T05:35:13;98626.91;;;-6.64;62.25
65534;BME280;53640;55.838;37.184;2022-12-18T05:37:39;98729.75;;;-6.03;63.15
65534;BME280;53640;55.838;37.184;2022-12-18T05:40:06;98737.81;;;-6.05;62.41
65534;BME280;53640;55.838;37.184;2022-12-18T05:42:33;98710.34;;;-6.23;61.53
65534;BME280;53640;55.838;37.184;2022-12-18T05:44:59;98753.09;;;-5.99;61.55
65534;BME280;53640;55.838;37.184;2022-12-18T05:47:26;98726.84;;;-6.21;62.54
65534;BME280;53640;55.838;37.184;2022-12-18T05:49:53;98716.13;;;-6.29;62.25
65534;BME280;53640;55.838;37.184;2022-12-18T05:52:19;98761.97;;;-6.00;62.15
65534;BME280;53640;55.838;37.184;2022-12-18T05:54:46;98772.06;;;-6.05;62.19
65534;BME280;53640;55.838;37.184;2022-12-18T05:57:12;98722.34;;;-6.30;61.98
65534;BME280;53640;55.838;37.184;2022-12-18T05:59:38;98760.22;;;-6.10;61.59
65534;BME280;53640;55.838;37.184;2022-12-18T06:02:05;98757.50;;;-6.20;61.25
65534;BME280;53640;55.838;37.184;2022-12-18T06:04:31;98722.25;;;-6.40;62.43
65534;BME280;53640;55.838;37.184;2022-12-18T06:06:58;98771.56;;;-6.10;62.09
65534;BME280;53640;55.838;37.184;2022-12-18T06:09:24;98766.59;;;-6.13;62.59
65534;BME280;53640;55.838;37.184;2022-12-18T06:11:52;98668.47;;;-6.79;62.06
65534;BME280;53640;55.838;37.184;2022-12-18T06:14:18;98725.53;;;-6.48;62.58
65534;BME280;53640;55.838;37.184;2022-12-18T06:16:44;98789.56;;;-6.15;62.37
65534;BME280;53640;55.838;37.184;2022-12-18T06:19:15;98787.56;;;-6.23;62.40
65534;BME280;53640;55.838;37.184;2022-12-18T06:21:41;98765.94;;;-6.37;62.93
65534;BME280;53640;55.838;37.184;2022-12-18T06:24:08;98778.72;;;-6.33;63.02
65534;BME280;53640;55.838;37.184;2022-12-18T06:26:37;98791.06;;;-6.33;62.30
65534;BME280;53640;55.838;37.184;2022-12-18T06:29:04;98809.22;;;-6.19;62.42
65534;BME280;53640;55.838;37.184;2022-12-18T06:31:32;98805.03;;;-6.22;62.44
65534;BME280;53640;55.838;37.184;2022-12-18T06:34:02;98786.75;;;-6.34;62.13
65534;BME280;53640;55.838;37.184;2022-12-18T06:36:28;98823.94;;;-6.16;62.39
65534;BME280;53640;55.838;37.184;2022-12-18T06:38:56;98833.50;;;-6.15;62.89
65534;BME280;53640;55.838;37.184;2022-12-18T06:41:23;98844.50;;;-6.10;62.93
65534;BME280;53640;55.838;37.184;2022-12-18T06:43:49;98849.53;;;-6.07;63.35
65534;BME280;53640;55.838;37.184;2022-12-18T06:46:16;98845.13;;;-6.18;62.29
65534;BME280;53640;55.838;37.184;2022-12-18T06:48:42;98865.34;;;-6.07;63.21
65534;BME280;53640;55.838;37.184;2022-12-18T06:51:08;98827.94;;;-6.33;62.22
65534;BME280;53640;55.838;37.184;2022-12-18T06:53:34;98879.47;;;-6.08;62.57
65534;BME280;53640;55.838;37.184;2022-12-18T06:56:02;98882.09;;;-6.08;63.05
65534;BME280;53640;55.838;37.184;2022-12-18T06:58:30;98825.06;;;-6.41;62.68
65534;BME280;53640;55.838;37.184;2022-12-18T07:01:05;98820.78;;;-6.42;62.77
65534;BME280;53640;55.838;37.184;2022-12-18T07:03:32;98886.53;;;-6.09;62.74
65534;BME280;53640;55.838;37.184;2022-12-18T07:05:59;98877.22;;;-6.13;62.31
65534;BME280;53640;55.838;37.184;2022-12-18T07:08:25;98850.94;;;-6.35;62.72
65534;BME280;53640;55.838;37.184;2022-12-18T07:10:51;98890.84;;;-6.08;62.84
65534;BME280;53640;55.838;37.184;2022-12-18T07:13:19;98893.84;;;-6.01;62.96
65534;BME280;53640;55.838;37.184;2022-12-18T07:15:46;98886.63;;;-5.99;62.91
65534;BME280;53640;55.838;37.184;2022-12-18T07:18:12;98853.66;;;-6.26;62.65
65534;BME280;53640;55.838;37.184;2022-12-18T07:20:38;98866.94;;;-6.27;62.66
65534;BME280;53640;55.838;37.184;2022-12-18T07:23:05;98861.91;;;-6.30;63.23
65534;BME280;53640;55.838;37.184;2022-12-18T07:25:35;98923.84;;;-5.92;64.00
65534;BME280;53640;55.838;37.184;2022-12-18T07:28:02;98923.13;;;-5.94;62.66
65534;BME280;53640;55.838;37.184;2022-12-18T07:30:28;98936.31;;;-5.94;63.31
65534;BME280;53640;55.838;37.184;2022-12-18T07:32:55;98933.66;;;-5.94;62.62
65534;BME280;53640;55.838;37.184;2022-12-18T07:35:21;98947.34;;;-5.89;62.98
65534;BME280;53640;55.838;37.184;2022-12-18T07:37:48;98949.34;;;-5.82;63.97
65534;BME280;53640;55.838;37.184;2022-12-18T07:40:14;98943.84;;;-5.79;64.01
65534;BME280;53640;55.838;37.184;2022-12-18T07:42:40;98899.91;;;-5.89;63.84
65534;BME280;53640;55.838;37.184;2022-12-18T07:45:07;98889.38;;;-5.89;63.46
65534;BME280;53640;55.838;37.184;2022-12-18T07:47:35;98923.56;;;-5.67;63.85
65534;BME280;53640;55.838;37.184;2022-12-18T07:50:05;98892.69;;;-5.87;63.68
65534;BME280;53640;55.838;37.184;2022-12-18T07:52:32;98886.72;;;-5.89;63.55
65534;BME280;53640;55.838;37.184;2022-12-18T07:54:58;98919.34;;;-5.69;63.41
65534;BME280;53640;55.838;37.184;2022-12-18T07:57:24;98909.00;;;-5.82;62.47
65534;BME280;53640;55.838;37.184;2022-12-18T07:59:52;98909.09;;;-5.84;62.87
65534;BME280;53640;55.838;37.184;2022-12-18T08:02:18;98910.19;;;-5.86;63.15
65534;BME280;53640;55.838;37.184;2022-12-18T08:04:45;98936.72;;;-5.67;62.78
65534;BME280;53640;55.838;37.184;2022-12-18T08:07:12;98943.53;;;-5.64;63.48
65534;BME280;53640;55.838;37.184;2022-12-18T08:09:39;98950.13;;;-5.59;64.16
65534;BME280;53640;55.838;37.184;2022-12-18T08:12:05;98948.69;;;-5.63;64.39
65534;BME280;53640;55.838;37.184;2022-12-18T08:14:32;98931.81;;;-5.71;64.38
65534;BME280;53640;55.838;37.184;2022-12-18T08:16:58;98963.06;;;-5.56;64.28
65534;BME280;53640;55.838;37.184;2022-12-18T08:19:24;98968.81;;;-5.62;64.63
65534;BME280;53640;55.838;37.184;2022-12-18T08:21:51;99006.66;;;-5.40;64.55
65534;BME280;53640;55.838;37.184;2022-12-18T08:24:17;99005.66;;;-5.39;64.00
65534;BME280;53640;55.838;37.184;2022-12-18T08:26:44;98985.81;;;-5.55;63.40
65534;BME280;53640;55.838;37.184;2022-12-18T08:29:10;98969.06;;;-5.65;63.86
65534;BME280;53640;55.838;37.184;2022-12-18T08:31:37;99009.13;;;-5.39;63.55
65534;BME280;53640;55.838;37.184;2022-12-18T08:34:03;99015.84;;;-5.35;63.63
65534;BME280;53640;55.838;37.184;2022-12-18T08:36:29;99019.94;;;-5.42;62.36
65534;BME280;53640;55.838;37.184;2022-12-18T08:38:56;99009.28;;;-5.40;63.65
65534;BME280;53640;55.838;37.184;2022-12-18T08:41:23;99024.47;;;-5.33;64.21
65534;BME280;53640;55.838;37.184;2022-12-18T08:43:50;99009.53;;;-5.43;64.46
65534;BME280;53640;55.838;37.184;2022-12-18T08:46:37;98999.94;;;-5.44;64.09
65534;BME280;53640;55.838;37.184;2022-12-18T08:49:05;98993.69;;;-5.43;64.43
65534;BME280;53640;55.838;37.184;2022-12-18T08:51:31;99024.69;;;-5.25;64.42
65534;BME280;53640;55.838;37.184;2022-12-18T08:53:58;99023.09;;;-5.16;64.26
65534;BME280;53640;55.838;37.184;2022-12-18T08:56:24;98976.84;;;-5.52;63.45
65534;BME280;53640;55.838;37.184;2022-12-18T08:58:52;98987.69;;;-5.45;63.90
65534;BME280;53640;55.838;37.184;2022-12-18T09:01:19;98987.84;;;-5.47;63.04
65534;BME280;53640;55.838;37.184;2022-12-18T09:03:46;99002.19;;;-5.40;63.74
65534;BME280;53640;55.838;37.184;2022-12-18T09:06:20;99041.69;;;-5.17;64.11
65534;BME280;53640;55.838;37.184;2022-12-18T09:08:47;99027.91;;;-5.21;63.38
65534;BME280;53640;55.838;37.184;2022-12-18T09:11:18;98993.31;;;-5.39;64.10
65534;BME280;53640;55.838;37.184;2022-12-18T09:13:45;99032.22;;;-5.20;63.09
65534;BME280;53640;55.838;37.184;2022-12-18T09:16:11;99047.31;;;-5.11;64.29
65534;BME280;53640;55.838;37.184;2022-12-18T09:18:37;99032.13;;;-5.18;63.55
65534;BME280;53640;55.838;37.184;2022-12-18T09:21:08;99038.84;;;-5.26;63.55
65534;BME280;53640;55.838;37.184;2022-12-18T09:23:35;99051.88;;;-5.13;64.54
65534;BME280;53640;55.838;37.184;2022-12-18T09:26:02;99067.31;;;-5.08;64.59
65534;BME280;53640;55.838;37.184;2022-12-18T09:28:28;99069.84;;;-5.07;64.67
65534;BME280;53640;55.838;37.184;2022-12-18T09:30:56;99044.59;;;-5.32;62.62
65534;BME280;53640;55.838;37.184;2022-12-18T09:33:22;99080.88;;;-5.13;63.08
65534;BME280;53640;55.838;37.184;2022-12-18T09:35:49;99097.44;;;-5.11;63.50
65534;BME280;53640;55.838;37.184;2022-12-18T09:38:17;99082.34;;;-5.20;64.60
65534;BME280;53640;55.838;37.184;2022-12-18T09:40:45;99111.09;;;-5.06;64.97
65534;BME280;53640;55.838;37.184;2022-12-18T09:43:46;99096.47;;;-5.10;63.86
65534;BME280;53640;55.838;37.184;2022-12-18T09:46:25;99089.06;;;-5.16;62.31
65534;BME280;53640;55.838;37.184;2022-12-18T09:48:54;99102.97;;;-5.14;64.28
65534;BME280;53640;55.838;37.184;2022-12-18T09:51:28;99102.47;;;-5.19;64.91
65534;BME280;53640;55.838;37.184;2022-12-18T09:54:01;99111.34;;;-5.09;64.95
65534;BME280;53640;55.838;37.184;2022-12-18T09:56:35;99080.22;;;-5.26;64.38
65534;BME280;53640;55.838;37.184;2022-12-18T09:59:04;99086.94;;;-5.22;63.07
65534;BME280;53640;55.838;37.184;2022-12-18T10:01:32;99101.41;;;-5.16;63.86
65534;BME280;53640;55.838;37.184;2022-12-18T10:03:59;99077.63;;;-5.37;64.36
65534;BME280;53640;55.838;37.184;2022-12-18T10:09:29;99129.72;;;-5.07;63.55
65534;BME280;53640;55.838;37.184;2022-12-18T10:12:24;99146.38;;;-5.07;63.40
65534;BME280;53640;55.838;37.184;2022-12-18T10:17:58;99147.31;;;-5.08;64.40
65534;BME280;53640;55.838;37.184;2022-12-18T10:20:35;99137.50;;;-5.17;64.22
65534;BME280;53640;55.838;37.184;2022-12-18T10:26:09;99149.03;;;-5.18;64.19
65534;BME280;53640;55.838;37.184;2022-12-18T10:28:37;99088.63;;;-5.43;64.03
65534;BME280;53640;55.838;37.184;2022-12-18T10:31:06;99142.06;;;-5.19;63.86
65534;BME280;53640;55.838;37.184;2022-12-18T10:33:34;99139.56;;;-5.20;63.68
65534;BME280;53640;55.838;37.184;2022-12-18T10:36:00;99128.41;;;-5.24;63.87
65534;BME280;53640;55.838;37.184;2022-12-18T10:38:31;99141.34;;;-5.21;64.34
65534;BME280;53640;55.838;37.184;2022-12-18T10:40:58;99093.31;;;-5.47;64.06
65534;BME280;53640;55.838;37.184;2022-12-18T10:43:30;99162.34;;;-5.19;63.21
65534;BME280;53640;55.838;37.184;2022-12-18T10:48:49;99170.63;;;-5.24;62.49
65534;BME280;53640;55.838;37.184;2022-12-18T10:51:36;99140.41;;;-5.42;63.91
65534;BME280;53640;55.838;37.184;2022-12-18T10:54:06;99170.16;;;-5.29;64.10
65534;BME280;53640;55.838;37.184;2022-12-18T10:56:40;99102.22;;;-5.70;64.57
65534;BME280;53640;55.838;37.184;2022-12-18T10:59:09;99175.44;;;-5.29;64.85
65534;BME280;53640;55.838;37.184;2022-12-18T11:01:55;99189.56;;;-5.19;64.73
65534;BME280;53640;55.838;37.184;2022-12-18T11:04:22;99196.53;;;-5.18;64.77
65534;BME280;53640;55.838;37.184;2022-12-18T11:07:08;99201.56;;;-5.15;65.17
65534;BME280;53640;55.838;37.184;2022-12-18T11:09:38;99156.00;;;-5.39;65.07
65534;BME280;53640;55.838;37.184;2022-12-18T11:12:17;99163.44;;;-5.33;64.75
65534;BME280;53640;55.838;37.184;2022-12-18T11:14:52;99186.91;;;-5.19;64.71
65534;BME280;53640;55.838;37.184;2022-12-18T11:17:31;99198.94;;;-5.15;64.67
65534;BME280;53640;55.838;37.184;2022-12-18T11:20:02;99196.28;;;-5.15;64.70
65534;BME280;53640;55.838;37.184;2022-12-18T11:22:35;99157.69;;;-5.38;64.95
65534;BME280;53640;55.838;37.184;2022-12-18T11:25:06;99160.22;;;-5.37;64.63
65534;BME280;53640;55.838;37.184;2022-12-18T11:27:33;99151.69;;;-5.40;64.64
65534;BME280;53640;55.838;37.184;2022-12-18T11:32:47;99199.88;;;-5.16;64.12
65534;BME280;53640;55.838;37.184;2022-12-18T11:35:32;99208.50;;;-5.14;61.92
65534;BME280;53640;55.838;37.184;2022-12-18T11:38:09;99204.22;;;-5.26;62.69
65534;BME280;53640;55.838;37.184;2022-12-18T11:40:42;99172.44;;;-5.47;63.25
65534;BME280;53640;55.838;37.184;2022-12-18T11:43:14;99223.63;;;-5.27;63.12
65534;BME280;53640;55.838;37.184;2022-12-18T11:45:51;99211.84;;;-5.34;64.08
65534;BME280;53640;55.838;37.184;2022-12-18T11:48:24;99175.91;;;-5.69;63.68
65534;BME280;53640;55.838;37.184;2022-12-18T11:50:53;99188.25;;;-5.58;64.18
65534;BME280;53640;55.838;37.184;2022-12-18T11:53:21;99242.69;;;-5.35;63.94
65534;BME280;53640;55.838;37.184;2022-12-18T11:59:01;99197.84;;;-5.57;64.23
65534;BME280;53640;55.838;37.184;2022-12-18T12:04:33;99264.16;;;-5.28;64.20
65534;BME280;53640;55.838;37.184;2022-12-18T12:07:22;99273.03;;;-5.29;64.09
65534;BME280;53640;55.838;37.184;2022-12-18T12:15:31;99257.19;;;-5.52;64.89
65534;BME280;53640;55.838;37.184;2022-12-18T12:20:58;99289.69;;;-5.29;64.83
65534;BME280;53640;55.838;37.184;2022-12-18T12:23:46;99306.13;;;-5.25;65.10
65534;BME280;53640;55.838;37.184;2022-12-18T12:29:39;99315.72;;;-5.24;64.73
65534;BME280;53640;55.838;37.184;2022-12-18T12:40:14;99325.19;;;-5.33;65.55
65534;BME280;53640;55.838;37.184;2022-12-18T12:42:44;99342.84;;;-5.22;65.28
65534;BME280;53640;55.838;37.184;2022-12-18T12:45:39;99343.28;;;-5.28;65.46
65534;BME280;53640;55.838;37.184;2022-12-18T12:48:16;99335.13;;;-5.36;64.63
65534;BME280;53640;55.838;37.184;2022-12-18T12:50:45;99349.03;;;-5.34;64.83
65534;BME280;53640;55.838;37.184;2022-12-18T12:53:24;99355.03;;;-5.32;65.22
65534;BME280;53640;55.838;37.184;2022-12-18T12:55:52;99326.13;;;-5.45;65.14
65534;BME280;53640;55.838;37.184;2022-12-18T12:58:27;99375.94;;;-5.18;65.16
65534;BME280;53640;55.838;37.184;2022-12-18T13:01:08;99355.03;;;-5.32;65.08
65534;BME280;53640;55.838;37.184;2022-12-18T13:03:52;99382.66;;;-5.14;65.14
65534;BME280;53640;55.838;37.184;2022-12-18T13:06:39;99378.56;;;-5.29;65.00
65534;BME280;53640;55.838;37.184;2022-12-18T13:09:07;99358.63;;;-5.44;64.70
65534;BME280;53640;55.838;37.184;2022-12-18T13:11:35;99417.81;;;-5.13;65.09
65534;BME280;53640;55.838;37.184;2022-12-18T13:17:24;99385.50;;;-5.28;64.62
65534;BME280;53640;55.838;37.184;2022-12-18T13:22:35;99397.94;;;-5.30;65.03
65534;BME280;53640;55.838;37.184;2022-12-18T13:25:03;99398.53;;;-5.38;64.84
65534;BME280;53640;55.838;37.184;2022-12-18T13:30:45;99452.94;;;-5.13;64.77
65534;BME280;53640;55.838;37.184;2022-12-18T13:38:34;99468.38;;;-5.19;64.40
65534;BME280;53640;55.838;37.184;2022-12-18T13:43:49;99455.00;;;-5.40;64.26
65534;BME280;53640;55.838;37.184;2022-12-18T13:49:03;99481.94;;;-5.24;64.29
65534;BME280;53640;55.838;37.184;2022-12-18T13:51:33;99480.91;;;-5.34;63.71
65534;BME280;53640;55.838;37.184;2022-12-18T13:54:21;99468.56;;;-5.45;64.11
65534;BME280;53640;55.838;37.184;2022-12-18T13:56:50;99460.91;;;-5.61;64.01
65534;BME280;53640;55.838;37.184;2022-12-18T13:59:20;99470.38;;;-5.58;63.96
65534;BME280;53640;55.838;37.184;2022-12-18T14:04:32;99515.22;;;-5.34;63.83
65534;BME280;53640;55.838;37.184;2022-12-18T14:07:28;99526.72;;;-5.35;64.31
65534;BME280;53640;55.838;37.184;2022-12-18T14:09:59;99523.69;;;-5.42;64.15
65534;BME280;53640;55.838;37.184;2022-12-18T14:12:31;99474.25;;;-5.75;64.39
65534;BME280;53640;55.838;37.184;2022-12-18T14:17:58;99550.19;;;-5.43;63.68
65534;BME280;53640;55.838;37.184;2022-12-18T14:20:27;99548.59;;;-5.46;63.67
65534;BME280;53640;55.838;37.184;2022-12-18T14:22:55;99523.88;;;-5.69;63.70
65534;BME280;53640;55.838;37.184;2022-12-18T14:25:24;99563.59;;;-5.46;64.07
65534;BME280;53640;55.838;37.184;2022-12-18T14:28:04;99552.53;;;-5.52;63.75
65534;BME280;53640;55.838;37.184;2022-12-18T14:30:43;99564.75;;;-5.51;62.97
65534;BME280;53640;55.838;37.184;2022-12-18T14:33:10;99577.84;;;-5.49;62.91
65534;BME280;53640;55.838;37.184;2022-12-18T14:36:03;99569.75;;;-5.59;63.33
65534;BME280;53640;55.838;37.184;2022-12-18T14:41:04;99574.09;;;-5.70;62.28
65534;BME280;53640;55.838;37.184;2022-12-18T14:43:33;99588.84;;;-5.68;62.73
65534;BME280;53640;55.838;37.184;2022-12-18T14:46:01;99538.50;;;-6.02;63.21
65534;BME280;53640;55.838;37.184;2022-12-18T14:48:38;99605.06;;;-5.61;63.47
65534;BME280;53640;55.838;37.184;2022-12-18T14:51:25;99601.72;;;-5.63;63.59